createdAt,value
2022-09-02T00:01:29.647Z,3.70
2022-09-02T00:03:59.620Z,2.30
2022-09-02T00:06:29.474Z,2.90
2022-09-02T00:08:57.061Z,4.00
2022-09-02T00:11:27.714Z,3.70
2022-09-02T00:13:57.198Z,3.00
2022-09-02T00:16:25.357Z,4.90
2022-09-02T00:18:53.793Z,3.00
2022-09-02T00:21:21.577Z,4.00
2022-09-02T00:23:49.218Z,4.40
2022-09-02T00:26:16.350Z,2.70
2022-09-02T00:28:46.281Z,4.20
2022-09-02T00:31:19.885Z,2.20
2022-09-02T00:33:47.025Z,4.70
2022-09-02T00:36:14.085Z,2.60
2022-09-02T00:38:41.580Z,4.10
2022-09-02T00:41:11.225Z,4.10
2022-09-02T00:43:46.161Z,2.30
2022-09-02T00:46:16.467Z,2.20
2022-09-02T00:48:49.729Z,4.20
2022-09-02T00:51:16.906Z,5.00
2022-09-02T00:53:46.803Z,6.50
2022-09-02T00:56:20.171Z,3.10
2022-09-02T00:58:48.946Z,3.60
2022-09-02T01:01:16.062Z,4.20
2022-09-02T01:03:43.303Z,2.70
2022-09-02T01:06:15.557Z,3.20
2022-09-02T01:08:47.461Z,5.40
2022-09-02T01:11:14.408Z,5.20
2022-09-02T01:13:43.288Z,6.90
2022-09-02T01:16:23.463Z,4.70
2022-09-02T01:18:53.901Z,5.60
2022-09-02T01:21:21.622Z,5.00
2022-09-02T01:23:49.390Z,5.00
2022-09-02T01:26:18.442Z,9.90
2022-09-02T01:28:45.375Z,4.80
2022-09-02T01:31:12.994Z,4.10
2022-09-02T01:33:39.997Z,6.10
2022-09-02T01:36:08.291Z,3.60
2022-09-02T01:38:35.372Z,7.10
2022-09-02T01:41:03.372Z,4.10
2022-09-02T01:43:30.912Z,4.20
2022-09-02T01:45:59.566Z,3.40
2022-09-02T01:48:28.235Z,3.70
2022-09-02T01:50:59.605Z,6.10
2022-09-02T01:53:27.778Z,3.90
2022-09-02T01:55:54.800Z,4.00
2022-09-02T01:58:22.255Z,3.70
2022-09-02T02:00:49.876Z,4.00
2022-09-02T02:03:17.424Z,3.70
2022-09-02T02:05:45.048Z,3.00
2022-09-02T02:08:13.540Z,4.00
2022-09-02T02:10:42.923Z,2.60
2022-09-02T02:13:11.206Z,4.70
2022-09-02T02:15:42.718Z,3.40
2022-09-02T02:18:11.136Z,5.50
2022-09-02T02:20:38.322Z,4.60
2022-09-02T02:23:06.964Z,5.70
2022-09-02T02:25:33.936Z,3.90
2022-09-02T02:28:01.017Z,3.90
2022-09-02T02:30:29.915Z,2.90
2022-09-02T02:32:57.801Z,2.90
2022-09-02T02:35:25.976Z,4.30
2022-09-02T02:37:52.904Z,3.80
2022-09-02T02:40:22.816Z,3.90
2022-09-02T02:42:53.413Z,4.30
2022-09-02T02:45:22.501Z,4.80
2022-09-02T02:47:51.265Z,2.70
2022-09-02T02:50:21.249Z,3.60
2022-09-02T02:52:49.060Z,3.90
2022-09-02T02:55:17.403Z,4.40
2022-09-02T02:57:44.936Z,3.00
2022-09-02T03:00:16.293Z,2.60
2022-09-02T03:02:43.480Z,4.70
2022-09-02T03:05:13.096Z,4.40
2022-09-02T03:07:41.006Z,4.30
2022-09-02T03:10:10.257Z,3.90
2022-09-02T03:12:39.717Z,4.10
2022-09-02T03:15:08.744Z,5.10
2022-09-02T03:17:35.724Z,8.90
2022-09-02T03:20:04.988Z,5.40
2022-09-02T03:22:33.543Z,3.50
2022-09-02T03:25:00.418Z,5.70
2022-09-02T03:27:27.376Z,5.40
2022-09-02T03:29:56.885Z,3.70
2022-09-02T03:32:23.706Z,5.10
2022-09-02T03:34:56.196Z,5.30
2022-09-02T03:37:23.599Z,5.70
2022-09-02T03:39:50.766Z,5.50
2022-09-02T03:42:19.623Z,4.60
2022-09-02T03:44:49.212Z,4.00
2022-09-02T03:47:17.833Z,6.90
2022-09-02T03:49:48.032Z,3.70
2022-09-02T03:52:15.083Z,6.70
2022-09-02T03:54:41.972Z,7.30
2022-09-02T03:57:09.713Z,6.20
2022-09-02T03:59:36.818Z,9.60
2022-09-02T04:02:04.077Z,10.00
2022-09-02T04:04:31.135Z,9.70
2022-09-02T04:06:59.177Z,8.00
2022-09-02T04:09:26.929Z,6.50
2022-09-02T04:11:54.374Z,6.00
2022-09-02T04:14:21.423Z,8.70
2022-09-02T04:16:48.316Z,6.60
2022-09-02T04:19:15.251Z,12.30
2022-09-02T04:21:42.353Z,9.80
2022-09-02T04:24:11.410Z,10.30
2022-09-02T04:26:45.306Z,12.50
2022-09-02T04:31:41.196Z,9.20
2022-09-02T04:34:08.241Z,7.10
2022-09-02T04:36:35.374Z,8.30
2022-09-02T04:39:04.753Z,11.00
2022-09-02T04:41:33.068Z,8.20
2022-09-02T04:44:03.245Z,9.40
2022-09-02T04:46:34.204Z,6.40
2022-09-02T04:49:05.148Z,6.90
2022-09-02T04:51:32.822Z,10.30
2022-09-02T04:54:01.132Z,8.80
2022-09-02T04:56:30.416Z,9.20
2022-09-02T04:58:58.589Z,7.50
2022-09-02T05:01:28.331Z,11.40
2022-09-02T05:03:56.239Z,7.70
2022-09-02T05:06:28.362Z,7.20
2022-09-02T05:08:59.713Z,7.80
2022-09-02T05:11:31.328Z,6.90
2022-09-02T05:14:01.754Z,6.00
2022-09-02T05:16:32.917Z,9.10
2022-09-02T05:19:00.468Z,7.40
2022-09-02T05:21:32.121Z,9.30
2022-09-02T05:24:01.994Z,7.40
2022-09-02T05:26:28.945Z,9.40
2022-09-02T05:28:56.894Z,8.20
2022-09-02T05:31:24.697Z,6.50
2022-09-02T05:33:53.468Z,10.50
2022-09-02T05:36:22.687Z,7.70
2022-09-02T05:38:50.051Z,9.30
2022-09-02T05:41:24.795Z,4.80
2022-09-02T05:44:01.342Z,7.50
2022-09-02T05:46:30.967Z,8.60
2022-09-02T05:49:06.361Z,5.10
2022-09-02T05:51:45.081Z,7.80
2022-09-02T05:54:30.273Z,8.00
2022-09-02T05:57:00.804Z,8.10
2022-09-02T05:59:30.682Z,5.50
2022-09-02T06:01:58.765Z,8.70
2022-09-02T06:04:26.789Z,7.70
2022-09-02T06:06:54.637Z,6.70
2022-09-02T06:09:24.137Z,5.50
2022-09-02T06:11:52.204Z,7.40
2022-09-02T06:14:25.586Z,7.90
2022-09-02T06:16:55.012Z,7.60
2022-09-02T06:19:30.524Z,5.10
2022-09-02T06:21:57.829Z,4.30
2022-09-02T06:24:26.783Z,6.20
2022-09-02T06:26:55.905Z,3.30
2022-09-02T06:29:25.574Z,4.40
2022-09-02T06:31:53.956Z,5.00
2022-09-02T06:34:24.107Z,5.30
2022-09-02T06:36:51.537Z,4.70
2022-09-02T06:39:21.799Z,8.60
2022-09-02T06:41:49.676Z,3.20
2022-09-02T06:44:21.728Z,4.40
2022-09-02T06:46:54.907Z,2.80
2022-09-02T06:49:23.400Z,8.30
2022-09-02T06:51:52.829Z,6.80
2022-09-02T06:54:21.741Z,4.10
2022-09-02T06:56:51.409Z,3.20
2022-09-02T06:59:22.523Z,5.80
2022-09-02T07:01:53.015Z,3.80
2022-09-02T07:04:37.620Z,3.60
2022-09-02T07:07:08.371Z,3.40
2022-09-02T07:09:40.830Z,4.80
2022-09-02T07:12:11.463Z,3.60
2022-09-02T07:14:44.265Z,4.10
2022-09-02T07:17:17.818Z,3.80
2022-09-02T07:19:48.729Z,4.10
2022-09-02T07:22:18.865Z,2.90
2022-09-02T07:24:46.866Z,2.40
2022-09-02T07:27:14.792Z,2.30
2022-09-02T07:29:44.211Z,2.10
2022-09-02T07:32:11.731Z,3.50
2022-09-02T07:34:38.600Z,2.90
2022-09-02T07:37:10.620Z,1.30
2022-09-02T07:39:38.796Z,1.40
2022-09-02T07:42:07.603Z,4.10
2022-09-02T07:44:34.730Z,2.90
2022-09-02T07:47:01.731Z,2.70
2022-09-02T07:50:15.587Z,1.00
2022-09-02T07:52:17.524Z,0.90
2022-09-02T07:54:45.517Z,2.70
2022-09-02T07:57:12.471Z,1.90
2022-09-02T07:59:40.262Z,3.20
2022-09-02T08:02:09.569Z,2.00
2022-09-02T08:04:36.529Z,2.30
2022-09-02T08:07:06.542Z,1.70
2022-09-02T08:09:33.431Z,3.80
2022-09-02T08:12:00.284Z,1.70
2022-09-02T08:14:28.848Z,2.90
2022-09-02T08:16:58.246Z,0.90
2022-09-02T08:19:26.404Z,1.40
2022-09-02T08:21:53.494Z,1.00
2022-09-02T08:24:20.544Z,1.80
2022-09-02T08:26:47.355Z,1.00
2022-09-02T08:29:14.233Z,1.30
2022-09-02T08:31:41.391Z,1.60
2022-09-02T08:34:08.243Z,2.10
2022-09-02T08:36:35.076Z,1.20
2022-09-02T08:39:03.884Z,1.30
2022-09-02T08:41:39.328Z,1.20
2022-09-02T08:44:07.645Z,2.90
2022-09-02T08:46:36.105Z,2.60
2022-09-02T08:49:08.840Z,1.10
2022-09-02T08:51:52.896Z,0.60
2022-09-02T08:54:37.504Z,2.40
2022-09-02T08:57:05.423Z,1.20
2022-09-02T08:59:32.511Z,1.20
2022-09-02T09:02:17.933Z,2.10
2022-09-02T09:05:06.337Z,1.90
2022-09-02T09:07:48.873Z,1.10
2022-09-02T09:10:35.763Z,0.60
2022-09-02T09:13:19.686Z,0.80
2022-09-02T09:15:52.367Z,0.60
2022-09-02T09:18:31.354Z,2.60
2022-09-02T09:20:58.151Z,1.70
2022-09-02T09:23:34.706Z,0.40
2022-09-02T09:26:11.445Z,1.30
2022-09-02T09:28:41.082Z,1.40
2022-09-02T09:31:13.633Z,0.80
2022-09-02T09:33:41.658Z,2.50
2022-09-02T09:36:10.091Z,1.20
2022-09-02T09:38:40.484Z,2.60
2022-09-02T09:41:24.805Z,0.80
2022-09-02T09:43:51.601Z,0.80
2022-09-02T09:46:34.409Z,0.60
2022-09-02T09:49:01.394Z,1.40
2022-09-02T09:51:28.277Z,0.60
2022-09-02T09:54:15.964Z,1.20
2022-09-02T09:56:43.100Z,0.60
2022-09-02T09:59:36.983Z,0.60
2022-09-02T10:02:04.385Z,1.00
2022-09-02T10:04:43.276Z,1.90
2022-09-02T10:07:13.740Z,2.00
2022-09-02T10:09:40.897Z,1.00
2022-09-02T10:12:11.444Z,4.70
2022-09-02T10:14:44.347Z,2.10
2022-09-02T10:17:32.451Z,3.10
2022-09-02T10:20:08.129Z,1.20
2022-09-02T10:22:59.415Z,1.40
2022-09-02T10:25:49.863Z,1.30
2022-09-02T10:28:36.195Z,1.60
2022-09-02T10:31:24.042Z,3.00
2022-09-02T10:34:14.532Z,0.60
2022-09-02T10:36:50.399Z,1.40
2022-09-02T10:39:30.574Z,0.80
2022-09-02T10:42:11.847Z,0.70
2022-09-02T10:44:58.801Z,2.10
2022-09-02T10:47:38.576Z,1.10
2022-09-02T10:50:27.083Z,1.30
2022-09-02T10:53:05.880Z,3.90
2022-09-02T10:56:00.454Z,1.90
2022-09-02T10:58:39.942Z,1.20
2022-09-02T11:01:13.616Z,1.00
2022-09-02T11:06:23.052Z,1.00
2022-09-02T11:08:56.201Z,1.20
2022-09-02T11:11:41.112Z,0.60
2022-09-02T11:14:22.758Z,0.70
2022-09-02T11:16:58.717Z,1.00
2022-09-02T11:19:45.535Z,1.70
2022-09-02T11:22:27.354Z,0.80
2022-09-02T11:25:00.399Z,0.80
2022-09-02T11:27:46.333Z,0.80
2022-09-02T11:30:15.049Z,1.60
2022-09-02T11:32:51.010Z,1.20
2022-09-02T11:35:27.569Z,3.20
2022-09-02T11:37:58.916Z,1.70
2022-09-02T11:40:34.691Z,1.10
2022-09-02T11:43:03.313Z,2.50
2022-09-02T11:45:47.188Z,2.40
2022-09-02T11:51:24.931Z,1.40
2022-09-02T11:53:56.016Z,1.90
2022-09-02T11:56:29.153Z,0.60
2022-09-02T11:58:57.413Z,1.10
2022-09-02T12:01:29.436Z,2.30
2022-09-02T12:07:08.690Z,0.60
2022-09-02T12:12:38.554Z,2.50
2022-09-02T12:15:06.654Z,3.20
2022-09-02T12:17:37.988Z,2.00
2022-09-02T12:20:08.952Z,2.20
2022-09-02T12:22:38.982Z,1.90
2022-09-02T12:25:26.798Z,0.60
2022-09-02T12:28:10.161Z,1.40
2022-09-02T12:30:57.436Z,0.60
2022-09-02T12:33:33.438Z,2.50
2022-09-02T12:36:04.803Z,3.50
2022-09-02T12:38:37.673Z,0.40
2022-09-02T12:41:05.051Z,0.70
2022-09-02T12:43:48.084Z,0.70
2022-09-02T12:46:28.742Z,3.50
2022-09-02T12:49:13.063Z,2.00
2022-09-02T12:51:58.195Z,2.40
2022-09-02T12:54:41.642Z,2.80
2022-09-02T12:57:10.463Z,0.70
2022-09-02T12:59:40.964Z,2.10
2022-09-02T13:02:17.575Z,2.00
2022-09-02T13:05:15.679Z,1.80
2022-09-02T13:07:59.852Z,2.80
2022-09-02T13:10:40.133Z,1.20
2022-09-02T13:13:16.014Z,2.40
2022-09-02T13:16:15.601Z,0.70
2022-09-02T13:19:05.606Z,4.20
2022-09-02T13:21:54.741Z,1.30
2022-09-02T13:24:52.771Z,2.40
2022-09-02T13:27:39.470Z,3.10
2022-09-02T13:30:29.839Z,0.60
2022-09-02T13:33:05.866Z,1.00
2022-09-02T13:35:36.726Z,0.70
2022-09-02T13:38:03.635Z,1.20
2022-09-02T13:40:34.699Z,0.60
2022-09-02T13:43:04.340Z,1.30
2022-09-02T13:45:35.342Z,0.50
2022-09-02T13:48:10.033Z,1.30
2022-09-02T13:50:42.645Z,1.70
2022-09-02T13:56:09.891Z,0.70
2022-09-02T13:58:42.727Z,2.90
2022-09-02T14:01:22.125Z,1.00
2022-09-02T14:03:53.257Z,2.60
2022-09-02T14:06:24.808Z,1.30
2022-09-02T14:08:56.517Z,2.30
2022-09-02T14:11:23.834Z,2.50
2022-09-02T14:13:51.868Z,1.80
2022-09-02T14:16:26.941Z,0.80
2022-09-02T14:19:17.319Z,1.70
2022-09-02T14:21:47.086Z,2.80
2022-09-02T14:24:16.393Z,0.70
2022-09-02T14:26:46.580Z,1.30
2022-09-02T14:29:16.650Z,2.90
2022-09-02T14:31:44.545Z,1.40
2022-09-02T14:34:42.731Z,3.00
2022-09-02T14:37:28.770Z,6.20
2022-09-02T14:40:11.790Z,1.20
2022-09-02T14:42:45.421Z,1.60
2022-09-02T14:45:13.565Z,0.70
2022-09-02T14:47:41.501Z,3.60
2022-09-02T14:50:12.436Z,1.10
2022-09-02T14:52:46.945Z,1.20
2022-09-02T14:55:43.944Z,5.00
2022-09-02T14:58:10.870Z,4.10
2022-09-02T15:00:39.323Z,1.70
2022-09-02T15:03:07.180Z,6.40
2022-09-02T15:05:34.093Z,4.20
2022-09-02T15:08:00.965Z,2.90
2022-09-02T15:10:28.073Z,2.10
2022-09-02T15:12:57.579Z,2.80
2022-09-02T15:15:25.196Z,3.60
2022-09-02T15:17:52.041Z,2.10
2022-09-02T15:20:18.864Z,2.40
2022-09-02T15:22:45.677Z,1.70
2022-09-02T15:25:12.907Z,1.90
2022-09-02T15:27:39.854Z,4.80
2022-09-02T15:30:09.427Z,1.40
2022-09-02T15:32:37.873Z,3.90
2022-09-02T15:35:06.960Z,2.70
2022-09-02T15:37:37.752Z,1.40
2022-09-02T15:40:07.389Z,1.40
2022-09-02T15:42:35.748Z,3.80
2022-09-02T15:45:04.899Z,1.30
2022-09-02T15:47:35.234Z,1.60
2022-09-02T15:50:02.103Z,2.20
2022-09-02T15:52:28.887Z,2.00
2022-09-02T15:54:55.725Z,1.30
2022-09-02T15:57:22.682Z,1.70
2022-09-02T15:59:49.553Z,1.40
2022-09-02T16:02:16.428Z,1.80
2022-09-02T16:04:43.299Z,4.70
2022-09-02T16:07:10.158Z,7.80
2022-09-02T16:09:43.753Z,1.80
2022-09-02T16:12:11.224Z,3.80
2022-09-02T16:14:38.089Z,3.50
2022-09-02T16:17:05.075Z,0.90
2022-09-02T16:19:32.015Z,3.60
2022-09-02T16:21:59.487Z,2.80
2022-09-02T16:24:27.057Z,2.90
2022-09-02T16:26:54.001Z,3.00
2022-09-02T16:29:21.178Z,4.50
2022-09-02T16:34:36.147Z,1.80
2022-09-02T16:37:03.066Z,4.20
2022-09-02T16:39:30.025Z,5.80
2022-09-02T16:41:58.287Z,4.40
2022-09-02T16:44:26.942Z,5.30
2022-09-02T16:46:54.194Z,2.70
2022-09-02T16:49:22.273Z,2.90
2022-09-02T16:51:57.779Z,3.00
2022-09-02T16:54:31.219Z,9.60
2022-09-02T16:57:00.325Z,4.20
2022-09-02T16:59:27.706Z,3.30
2022-09-02T17:01:54.636Z,4.80
2022-09-02T17:04:21.545Z,2.90
2022-09-02T17:06:48.775Z,4.70
2022-09-02T17:09:16.419Z,3.60
2022-09-02T17:11:45.446Z,9.00
2022-09-02T17:14:16.631Z,4.50
2022-09-02T17:16:48.194Z,12.00
2022-09-02T17:19:21.893Z,10.00
2022-09-02T17:24:19.394Z,12.60
2022-09-02T17:26:48.284Z,7.30
2022-09-02T17:29:46.994Z,10.20
2022-09-02T17:32:05.715Z,9.50
2022-09-02T17:34:33.858Z,3.70
2022-09-02T17:37:00.787Z,10.90
2022-09-02T17:39:27.685Z,3.80
2022-09-02T17:41:54.557Z,6.70
2022-09-02T17:44:23.475Z,6.10
2022-09-02T17:46:51.130Z,5.10
2022-09-02T17:49:18.629Z,8.40
2022-09-02T17:51:46.658Z,5.60
2022-09-02T17:54:14.988Z,5.30
2022-09-02T17:57:01.294Z,5.00
2022-09-02T18:00:00.544Z,12.50
2022-09-02T18:02:36.157Z,7.60
2022-09-02T18:05:11.325Z,4.70
2022-09-02T18:08:01.046Z,2.40
2022-09-02T18:10:38.101Z,4.30
2022-09-02T18:13:09.666Z,6.80
2022-09-02T18:15:48.470Z,6.00
2022-09-02T18:18:17.108Z,3.40
2022-09-02T18:20:48.300Z,5.20
2022-09-02T18:23:47.519Z,6.10
2022-09-02T18:26:45.843Z,2.90
2022-09-02T18:29:21.303Z,3.50
2022-09-02T18:32:19.319Z,6.70
2022-09-02T18:35:03.069Z,6.10
2022-09-02T18:37:53.234Z,10.60
2022-09-02T18:40:40.237Z,6.10
2022-09-02T18:43:19.900Z,5.30
2022-09-02T18:45:50.224Z,6.50
2022-09-02T18:48:20.493Z,3.50
2022-09-02T18:50:53.886Z,4.60
2022-09-02T18:53:27.252Z,4.50
2022-09-02T18:55:54.997Z,7.10
2022-09-02T18:58:34.279Z,9.20
2022-09-02T19:01:10.693Z,10.60
2022-09-02T19:03:37.891Z,4.10
2022-09-02T19:06:08.759Z,6.50
2022-09-02T19:08:38.301Z,7.90
2022-09-02T19:11:08.194Z,6.70
2022-09-02T19:13:56.128Z,7.50
2022-09-02T19:16:27.594Z,6.60
2022-09-02T19:18:55.046Z,16.90
2022-09-02T19:21:31.422Z,13.30
2022-09-02T19:23:58.234Z,6.60
2022-09-02T19:26:25.058Z,8.60
2022-09-02T19:28:53.133Z,7.10
2022-09-02T19:31:23.110Z,7.30
2022-09-02T19:33:52.906Z,3.60
2022-09-02T19:36:23.725Z,13.20
2022-09-02T19:38:54.263Z,5.80
2022-09-02T19:41:21.153Z,6.80
2022-09-02T19:43:48.094Z,9.30
2022-09-02T19:46:43.919Z,6.50
2022-09-02T19:49:01.757Z,6.00
2022-09-02T19:51:28.816Z,12.80
2022-09-02T19:53:56.667Z,5.80
2022-09-02T19:56:23.561Z,5.60
2022-09-02T19:58:50.390Z,8.20
2022-09-02T20:01:17.276Z,6.20
2022-09-02T20:03:46.530Z,6.20
2022-09-02T20:06:13.345Z,11.20
2022-09-02T20:08:40.171Z,11.50
2022-09-02T20:11:07.539Z,6.60
2022-09-02T20:13:40.156Z,8.00
2022-09-02T20:16:17.895Z,9.90
2022-09-02T20:18:45.617Z,7.40
2022-09-02T20:21:19.779Z,7.10
2022-09-02T20:23:46.609Z,11.60
2022-09-02T20:26:45.699Z,9.60
2022-09-02T20:29:36.281Z,9.60
2022-09-02T20:32:08.271Z,8.30
2022-09-02T20:34:39.043Z,7.60
2022-09-02T20:37:30.265Z,10.60
2022-09-02T20:40:13.126Z,6.90
2022-09-02T20:43:11.366Z,8.00
2022-09-02T20:45:44.540Z,9.20
2022-09-02T20:48:14.433Z,7.60
2022-09-02T20:50:48.460Z,11.70
2022-09-02T20:53:43.322Z,11.00
2022-09-02T20:56:34.882Z,8.50
2022-09-02T20:59:10.639Z,7.20
2022-09-02T21:01:40.167Z,7.70
2022-09-02T21:04:26.962Z,12.60
2022-09-02T21:07:13.038Z,11.40
2022-09-02T21:09:56.127Z,16.80
2022-09-02T21:12:36.768Z,15.10
2022-09-02T21:15:13.278Z,13.00
2022-09-02T21:17:48.652Z,13.10
2022-09-02T21:20:24.794Z,14.20
2022-09-02T21:22:57.257Z,12.40
2022-09-02T21:25:30.300Z,10.00
2022-09-02T21:28:03.398Z,14.40
2022-09-02T21:30:37.369Z,9.60
2022-09-02T21:33:08.863Z,11.70
2022-09-02T21:35:41.262Z,10.40
2022-09-02T21:38:15.111Z,10.30
2022-09-02T21:40:58.252Z,10.90
2022-09-02T21:43:45.494Z,13.20
2022-09-02T21:46:21.317Z,9.20
2022-09-02T21:49:03.912Z,8.30
2022-09-02T21:51:36.738Z,9.10
2022-09-02T21:54:20.423Z,9.20
2022-09-02T21:57:10.329Z,9.50
2022-09-02T21:59:54.346Z,6.90
2022-09-02T22:02:47.184Z,9.90
2022-09-02T22:05:39.837Z,7.30
2022-09-02T22:08:15.827Z,9.50
2022-09-02T22:10:50.154Z,8.90
2022-09-02T22:16:03.018Z,11.30
2022-09-02T22:18:31.223Z,7.30
2022-09-02T22:21:02.602Z,7.40
2022-09-02T22:23:30.237Z,8.10
2022-09-02T22:26:16.995Z,9.50
2022-09-02T22:28:49.219Z,8.00
2022-09-02T22:31:21.641Z,8.20
2022-09-02T22:33:55.721Z,9.00
2022-09-02T22:36:35.184Z,8.50
2022-09-02T22:39:02.535Z,7.60
2022-09-02T22:41:35.904Z,7.90
2022-09-02T22:44:18.133Z,7.90
2022-09-02T22:47:20.274Z,6.20
2022-09-02T22:50:07.281Z,4.90
2022-09-02T22:52:57.408Z,7.60
2022-09-02T22:55:42.744Z,5.80
2022-09-02T22:58:33.315Z,4.80
2022-09-02T23:01:15.930Z,4.00
2022-09-02T23:04:05.728Z,7.30
2022-09-02T23:06:33.517Z,4.70
2022-09-02T23:09:09.817Z,7.90
2022-09-02T23:12:08.240Z,6.00
2022-09-02T23:15:00.024Z,5.10
2022-09-02T23:17:34.890Z,5.10
2022-09-02T23:20:06.059Z,8.30
2022-09-02T23:22:52.746Z,5.10
2022-09-02T23:25:52.175Z,4.20
2022-09-02T23:28:32.186Z,7.20
2022-09-02T23:31:17.957Z,6.60
2022-09-02T23:34:03.247Z,8.00
2022-09-02T23:36:47.493Z,5.70
2022-09-02T23:39:37.430Z,7.00
2022-09-02T23:42:04.646Z,5.90
2022-09-02T23:44:31.585Z,5.40
2022-09-02T23:47:02.363Z,5.00
2022-09-02T23:50:01.260Z,6.30
2022-09-02T23:52:56.559Z,5.70
2022-09-02T23:55:39.498Z,8.60
2022-09-02T23:58:32.517Z,7.00
